Time;durP1;ratioP1;P1;durP2;ratioP2;P2;SDS_P1;SDS_P2;PMS_P1;PMS_P2;Temp;Humidity;BMP_temperature;BMP_pressure;BME280_temperature;BME280_humidity;BME280_pressure;Samples;Min_cycle;Max_cycle;Signal;HPM_P1;HPM_P2
2021/12/28 00:00:09;;;;;;;;;;;;;;;9.60;98.96;99151.94;10573191;28;19920;-85
2021/12/28 00:05:14;;;;;;;;;;;;;;;9.52;98.44;99147.34;10582254;27;20351;-86
2021/12/28 00:10:18;;;;;;;;;;;;;;;9.53;98.73;99149.88;10580856;28;20705;-86
2021/12/28 00:15:32;;;;;;;;;;;;;;;9.50;98.68;99147.47;10577934;28;19991;-85
2021/12/28 00:20:39;;;;;;;;;;;;;;;9.48;99.00;99143.28;10578945;28;19919;-85
2021/12/28 00:25:40;;;;;;;;;;;;;;;9.44;98.47;99142.75;10581469;28;20599;-86
2021/12/28 00:30:42;;;;;;;;;;;;;;;9.43;99.10;99140.22;10573646;28;20375;-86
2021/12/28 00:35:45;;;;;;;;;;;;;;;9.43;98.74;99148.22;10581501;28;19920;-86
2021/12/28 00:40:47;;;;;;;;;;;;;;;9.41;99.10;99136.84;10579106;28;19923;-86
2021/12/28 00:45:49;;;;;;;;;;;;;;;9.37;99.07;99130.97;10579253;28;19920;-86
2021/12/28 00:50:55;;;;;;;;;;;;;;;9.33;98.92;99124.25;10587780;28;19920;-85
2021/12/28 00:55:57;;;;;;;;;;;;;;;9.31;98.80;99121.72;10586207;28;19943;-86
2021/12/28 01:01:01;;;;;;;;;;;;;;;9.32;99.20;99102.13;10583786;28;19992;-85
2021/12/28 01:06:04;;;;;;;;;;;;;;;9.32;99.10;99106.56;10581411;28;19948;-85
2021/12/28 01:11:07;;;;;;;;;;;;;;;9.30;99.14;99090.72;10579585;28;19923;-86
2021/12/28 01:16:09;;;;;;;;;;;;;;;9.30;99.23;99089.91;10575601;28;19945;-85
2021/12/28 01:21:12;;;;;;;;;;;;;;;9.29;99.64;99082.91;10579331;28;19927;-86
2021/12/28 01:26:13;;;;;;;;;;;;;;;9.29;98.78;99085.56;10575977;28;19923;-86
2021/12/28 01:31:15;;;;;;;;;;;;;;;9.29;99.75;99088.25;10582175;28;19924;-85
2021/12/28 01:36:18;;;;;;;;;;;;;;;9.29;99.63;99091.75;10574883;28;20278;-86
2021/12/28 01:41:22;;;;;;;;;;;;;;;9.31;99.51;99089.75;10576910;28;19924;-86
2021/12/28 01:46:29;;;;;;;;;;;;;;;9.30;99.11;99085.41;10574306;28;19986;-86
2021/12/28 01:51:33;;;;;;;;;;;;;;;9.30;99.47;99081.91;10574274;28;20038;-86
2021/12/28 01:56:38;;;;;;;;;;;;;;;9.29;99.58;99083.75;10579215;28;19931;-86
2021/12/28 02:01:40;;;;;;;;;;;;;;;9.31;99.79;99083.59;10572958;28;19924;-86
2021/12/28 02:06:43;;;;;;;;;;;;;;;9.32;99.55;99086.13;10574191;28;19976;-86
2021/12/28 02:11:45;;;;;;;;;;;;;;;9.31;99.57;99089.75;10581793;28;19924;-86
2021/12/28 02:16:47;;;;;;;;;;;;;;;9.29;99.34;99088.25;10585417;28;19954;-84
2021/12/28 02:21:50;;;;;;;;;;;;;;;9.28;99.27;99079.38;10582330;28;19946;-86
2021/12/28 02:26:51;;;;;;;;;;;;;;;9.28;99.71;99076.72;10587367;28;19919;-84
2021/12/28 02:31:55;;;;;;;;;;;;;;;9.29;99.44;99077.59;10579317;28;19920;-85
2021/12/28 02:36:58;;;;;;;;;;;;;;;9.29;99.88;99070.44;10586251;28;19927;-86
2021/12/28 02:42:00;;;;;;;;;;;;;;;9.28;99.89;99073.22;10588330;28;20490;-86
2021/12/28 02:47:02;;;;;;;;;;;;;;;9.28;100.00;99073.22;10581910;28;20572;-86
2021/12/28 02:52:09;;;;;;;;;;;;;;;9.26;99.17;99070.72;10583805;28;19923;-86
2021/12/28 02:57:14;;;;;;;;;;;;;;;9.29;100.00;99058.94;10582053;28;19924;-85
2021/12/28 03:02:15;;;;;;;;;;;;;;;9.29;99.53;99054.44;10579402;28;19927;-86
2021/12/28 03:07:18;;;;;;;;;;;;;;;9.32;100.00;99046.16;10586315;28;19955;-86
2021/12/28 03:12:20;;;;;;;;;;;;;;;9.32;99.84;99040.84;10581009;28;19974;-85
2021/12/28 03:17:21;;;;;;;;;;;;;;;9.33;100.00;99044.34;10577794;28;19923;-86
2021/12/28 03:22:24;;;;;;;;;;;;;;;9.36;99.67;99030.69;10575809;28;19928;-86
2021/12/28 03:27:26;;;;;;;;;;;;;;;9.37;100.00;99029.72;10586988;27;19982;-85
2021/12/28 03:32:28;;;;;;;;;;;;;;;9.40;100.00;99018.78;10580990;28;19924;-86
2021/12/28 03:37:33;;;;;;;;;;;;;;;9.42;100.00;99008.81;10584002;28;19919;-86
2021/12/28 03:42:34;;;;;;;;;;;;;;;9.44;100.00;99014.81;10585343;28;19923;-85
2021/12/28 03:47:36;;;;;;;;;;;;;;;9.44;100.00;99001.50;10579542;28;19928;-86
2021/12/28 03:52:40;;;;;;;;;;;;;;;9.47;100.00;99001.19;10573849;28;19928;-84
2021/12/28 03:57:41;;;;;;;;;;;;;;;9.50;100.00;98998.22;10572496;28;19920;-84
2021/12/28 04:02:44;;;;;;;;;;;;;;;9.52;100.00;98990.94;10565826;28;20356;-84
2021/12/28 04:07:48;;;;;;;2.30;1.70;;;;;;;9.38;100.00;98982.59;10569691;28;20448;-85
2021/12/28 04:12:52;;;;;;;;;;;;;;;9.59;100.00;99006.31;10569339;28;20660;-83
2021/12/28 04:17:53;;;;;;;;;;;;;;;9.60;100.00;98995.50;10564903;28;19931;-83
2021/12/28 04:22:56;;;;;;;;;;;;;;;9.64;100.00;98998.72;10569380;27;19927;-85
2021/12/28 04:27:58;;;;;;;;;;;;;;;9.67;100.00;98985.09;10572458;28;19920;-84
2021/12/28 04:32:59;;;;;;;;;;;;;;;9.68;100.00;98981.44;10574655;28;19924;-84
2021/12/28 04:38:02;;;;;;;;;;;;;;;9.69;100.00;98972.44;10568492;28;19930;-84
2021/12/28 04:43:04;;;;;;;;;;;;;;;9.72;100.00;98970.31;10569444;28;19928;-85
2021/12/28 04:48:06;;;;;;;;;;;;;;;9.75;100.00;98975.34;10567242;28;19927;-83
2021/12/28 04:53:11;;;;;;;;;;;;;;;9.77;100.00;98969.84;10568725;28;19923;-84
2021/12/28 04:58:13;;;;;;;;;;;;;;;9.82;100.00;98964.91;10570739;28;19972;-84
2021/12/28 05:03:15;;;;;;;;;;;;;;;9.85;100.00;98955.75;10568483;28;19923;-85
2021/12/28 05:08:20;;;;;;;;;;;;;;;9.86;100.00;98946.78;10563921;28;19935;-85
2021/12/28 05:13:22;;;;;;;;;;;;;;;9.91;100.00;98945.34;10562840;28;19923;-84
2021/12/28 05:18:24;;;;;;;;;;;;;;;9.91;100.00;98948.00;10565432;28;20204;-84
2021/12/28 05:23:26;;;;;;;;;;;;;;;9.94;100.00;98944.19;10562619;28;19930;-84
2021/12/28 05:28:28;;;;;;;;;;;;;;;9.91;100.00;98942.66;10567361;28;20625;-84
2021/12/28 05:33:29;;;;;;;;;;;;;;;9.94;100.00;98926.38;10563815;28;19955;-85
2021/12/28 05:38:32;;;;;;;;;;;;;;;9.99;100.00;98925.06;10565459;28;19924;-84
2021/12/28 05:43:34;;;;;;;;;;;;;;;9.98;100.00;98918.03;10565349;27;19920;-84
2021/12/28 05:48:36;;;;;;;;;;;;;;;9.99;100.00;98920.56;10564795;28;19924;-84
2021/12/28 05:53:39;;;;;;;;;;;;;;;10.00;100.00;98918.72;10564990;28;19928;-85
2021/12/28 05:58:40;;;;;;;;;;;;;;;9.99;100.00;98904.56;10560579;28;20532;-85
2021/12/28 06:03:42;;;;;;;;;;;;;;;10.02;100.00;98901.59;10568791;28;19931;-84
2021/12/28 06:08:45;;;;;;;;;;;;;;;10.03;100.00;98884.59;10561371;28;19920;-85
2021/12/28 06:13:46;;;;;;;;;;;;;;;10.04;100.00;98888.94;10558948;28;19928;-84
2021/12/28 06:18:48;;;;;;;;;;;;;;;10.08;100.00;98882.31;10563538;28;19924;-85
2021/12/28 06:23:51;;;;;;;;;;;;;;;10.07;100.00;98883.28;10563171;28;19924;-84
2021/12/28 06:28:52;;;;;;;;;;;;;;;10.08;100.00;98876.13;10563307;28;20375;-85
2021/12/28 06:33:54;;;;;;;;;;;;;;;10.12;100.00;98885.50;10562886;28;19928;-84
2021/12/28 06:38:57;;;;;;;;;;;;;;;10.12;100.00;98881.00;10559685;28;19927;-84
2021/12/28 06:43:58;;;;;;;;;;;;;;;10.16;100.00;98881.50;10557868;28;19920;-84
2021/12/28 06:49:00;;;;;;;;;;;;;;;10.14;100.00;98881.66;10558687;28;20454;-83
2021/12/28 06:54:02;;;;;;;;;;;;;;;10.13;100.00;98871.16;10567520;28;19923;-83
2021/12/28 06:59:04;;;;;;;;;;;;;;;10.16;100.00;98867.34;10568506;28;19924;-84
2021/12/28 07:04:06;;;;;;;;;;;;;;;10.17;100.00;98866.34;10568131;28;19924;-85
2021/12/28 07:09:09;;;;;;;;;;;;;;;10.19;100.00;98861.69;10576562;28;20110;-85
2021/12/28 07:14:10;;;;;;;;;;;;;;;10.21;100.00;98849.03;10571280;28;19923;-85
2021/12/28 07:19:12;;;;;;;;;;;;;;;10.25;100.00;98853.06;10571562;27;19927;-84
2021/12/28 07:24:15;;;;;;;;;;;;;;;10.27;100.00;98848.41;10574730;28;19919;-85
2021/12/28 07:29:17;;;;;;;;;;;;;;;10.27;100.00;98851.91;10572876;28;19927;-85
2021/12/28 07:34:18;;;;;;;;;;;;;;;10.30;100.00;98856.09;10573520;28;19945;-84
2021/12/28 07:39:21;;;;;;;;;;;;;;;10.30;100.00;98843.63;10568136;28;19937;-85
2021/12/28 07:44:25;;;;;;;;;;;;;;;10.29;100.00;98833.91;10569577;28;19931;-85
2021/12/28 07:49:27;;;;;;;;;;;;;;;10.30;100.00;98832.97;10562251;28;19919;-85
2021/12/28 07:54:30;;;;;;;;;;;;;;;10.33;100.00;98832.63;10572568;28;19924;-85
2021/12/28 07:59:31;;;;;;;;;;;;;;;10.37;100.00;98824.31;10569458;27;19924;-85
2021/12/28 08:04:33;;;;;;;;;;;;;;;10.33;100.00;98819.28;10570101;28;19928;-85
2021/12/28 08:09:36;;;;;;;;;;;;;;;10.33;100.00;98816.59;10570678;28;19923;-84
2021/12/28 08:14:37;;;;;;;;;;;;;;;10.30;100.00;98813.38;10566682;28;19928;-85
2021/12/28 08:19:39;;;;;;;;;;;;;;;10.37;100.00;98814.47;10568061;28;19924;-84
2021/12/28 08:24:42;;;;;;;;;;;;;;;10.36;100.00;98817.28;10568377;28;19994;-85
2021/12/28 08:29:43;;;;;;;;;;;;;;;10.41;100.00;98807.81;10564468;28;20018;-83
2021/12/28 08:34:47;;;;;;;;;;;;;;;10.43;100.00;98797.81;10558347;28;19923;-85
2021/12/28 08:39:50;;;;;;;;;;;;;;;10.46;100.00;98810.00;10569179;28;19977;-86
2021/12/28 08:44:52;;;;;;;;;;;;;;;10.47;100.00;98796.50;10561605;28;19935;-84
2021/12/28 08:49:54;;;;;;;;;;;;;;;10.48;100.00;98800.00;10564123;28;19919;-83
2021/12/28 08:54:57;;;;;;;;;;;;;;;10.48;100.00;98800.84;10561296;28;19920;-85
2021/12/28 08:59:58;;;;;;;;;;;;;;;10.54;100.00;98787.84;10567315;28;19946;-84
2021/12/28 09:05:00;;;;;;;;;;;;;;;10.59;100.00;98778.38;10555112;28;21215;-84
2021/12/28 09:10:04;;;;;;;;;;;;;;;10.63;100.00;98769.03;10560722;28;19927;-84
2021/12/28 09:15:06;;;;;;;;;;;;;;;10.62;100.00;98774.53;10561036;28;19926;-84
2021/12/28 09:20:08;;;;;;;;;;;;;;;10.63;100.00;98761.00;10560770;28;20046;-83
2021/12/28 09:25:14;;;;;;;;;;;;;;;10.67;100.00;98757.03;10566534;28;19943;-85
2021/12/28 09:30:16;;;;;;;;;;;;;;;10.70;100.00;98756.72;10567171;28;20003;-83
2021/12/28 09:35:18;;;;;;;;;;;;;;;10.72;100.00;98751.22;10563400;28;19927;-85
2021/12/28 09:40:21;;;;;;;;;;;;;;;10.74;100.00;98745.69;10564961;28;19971;-84
2021/12/28 09:45:23;;;;;;;;;;;;;;;10.78;100.00;98744.38;10561881;28;19981;-85
2021/12/28 09:50:25;;;;;;;;;;;;;;;10.79;100.00;98756.72;10558720;28;19932;-83
2021/12/28 09:55:28;;;;;;;;;;;;;;;10.85;100.00;98753.38;10561315;28;19927;-84
2021/12/28 10:00:30;;;;;;;;;;;;;;;10.82;100.00;98733.19;10559395;28;19920;-84
2021/12/28 10:05:33;;;;;;;;;;;;;;;10.83;100.00;98729.53;10556077;28;19930;-84
2021/12/28 10:10:37;;;;;;;;;;;;;;;10.88;100.00;98723.69;10554204;28;20345;-86
2021/12/28 10:15:39;;;;;;;;;;;;;;;10.89;100.00;98720.03;10559056;28;19931;-85
2021/12/28 10:20:42;;;;;;;;;;;;;;;10.87;100.00;98717.53;10558445;28;19930;-86
2021/12/28 10:25:47;;;;;;;;;;;;;;;10.85;100.00;98713.31;10557055;28;19927;-85
2021/12/28 10:30:50;;;;;;;;;;;;;;;10.88;100.00;98719.16;10566497;28;19924;-84
2021/12/28 10:35:53;;;;;;;;;;;;;;;10.88;100.00;98705.00;10561670;28;19935;-84
2021/12/28 10:40:58;;;;;;;;;;;;;;;10.94;100.00;98696.31;10560478;28;19916;-85
2021/12/28 10:46:05;;;;;;;;;;;;;;;10.96;100.00;98696.16;10564061;27;19960;-86
2021/12/28 10:51:09;;;;;;;;;;;;;;;10.96;100.00;98693.47;10567827;28;19927;-84
2021/12/28 10:56:15;;;;;;;;;;;;;;;10.96;100.00;98678.28;10563667;28;19981;-85
2021/12/28 11:01:18;;;;;;;;;;;;;;;10.97;100.00;98671.94;10561656;27;20304;-86
2021/12/28 11:06:21;;;;;;;;;;;;;;;10.93;100.00;98667.94;10562280;28;19924;-85
2021/12/28 11:11:25;;;;;;;;;;;;;;;10.91;100.00;98659.25;10567237;28;19931;-86
2021/12/28 11:16:29;;;;;;;;;;;;;;;10.89;100.00;98656.75;10567290;27;19977;-86
2021/12/28 11:21:31;;;;;;;;;;;;;;;10.90;100.00;98642.38;10571280;28;19923;-86
2021/12/28 11:26:37;;;;;;;;;;;;;;;10.93;100.00;98646.56;10564123;28;20027;-84
2021/12/28 11:31:39;;;;;;;;;;;;;;;10.93;100.00;98653.75;10568616;28;19928;-85
2021/12/28 11:36:43;;;;;;;;;;;;;;;10.87;100.00;98645.41;10563488;28;19958;-84
2021/12/28 11:41:47;;;;;;;;;;;;;;;10.85;100.00;98644.75;10561282;27;19923;-84
2021/12/28 11:46:50;;;;;;;;;;;;;;;10.84;100.00;98669.75;10564424;28;19930;-84
2021/12/28 11:51:53;;;;;;;;;;;;;;;10.72;99.57;98684.47;10562559;28;19934;-85
2021/12/28 11:57:00;;;;;;;;;;;;;;;10.73;99.54;98693.28;10561731;28;19969;-85
2021/12/28 12:02:02;;;;;;;;;;;;;;;10.74;99.47;98677.13;10559067;28;19924;-84
2021/12/28 12:07:05;;;;;;;;;;;;;;;10.69;98.23;98672.25;10555702;28;19934;-87
2021/12/28 12:12:17;;;;;;;;;;;;;;;10.71;97.67;98682.78;10549401;28;19942;-86
2021/12/28 12:17:34;;;;;;;;;;;;;;;10.73;97.54;98675.44;10561152;28;20330;-84
2021/12/28 12:22:36;;;;;;;;;;;;;;;10.78;97.66;98683.78;10558726;28;20455;-85
2021/12/28 12:27:40;;;;;;;;;;;;;;;10.99;98.26;98653.91;10556711;28;20288;-85
2021/12/28 12:33:01;;;;;;;;;;;;;;;11.16;97.98;98672.63;10551864;28;20279;-84
2021/12/28 12:38:05;;;;;;;;;;;;;;;11.24;95.59;98669.94;10548405;28;19972;-84
2021/12/28 12:43:12;;;;;;;;;;;;;;;11.32;94.35;98671.75;10548267;28;20027;-84
2021/12/28 12:48:29;;;;;;;;;;;;;;;11.35;94.05;98674.09;10546123;28;19926;-84
2021/12/28 12:53:45;;;;;;;;;;;;;;;11.29;92.60;98671.09;10541408;28;20403;-85
2021/12/28 12:58:49;;;;;;;;;;;;;;;11.29;90.75;98676.44;10546781;28;19991;-84
2021/12/28 13:03:50;;;;;;;;;;;;;;;11.28;90.02;98664.09;10545693;28;19920;-84
2021/12/28 13:08:57;;;;;;;;;;;;;;;11.37;90.57;98672.09;10541272;28;20116;-83
2021/12/28 13:14:00;;;;;;;;;;;;;;;11.33;89.50;98684.13;10543289;28;20309;-84
2021/12/28 13:19:07;;;;;;;;;;;;;;;11.24;86.82;98686.78;10546023;28;19923;-84
2021/12/28 13:24:09;;;;;;;;;;;;;;;11.18;87.96;98679.44;10547122;28;20367;-83
2021/12/28 13:29:12;;;;;;;;;;;;;;;11.14;87.01;98688.81;10551165;28;19935;-84
2021/12/28 13:34:13;;;;;;;;;;;;;;;11.09;87.30;98697.34;10543943;28;19928;-83
2021/12/28 13:39:15;;;;;;;;;;;;;;;11.18;88.82;98678.63;10548553;28;19920;-83
2021/12/28 13:44:20;;;;;;;;;;;;;;;11.17;87.20;98698.31;10545235;28;19928;-83
2021/12/28 13:49:22;;;;;;;;;;;;;;;11.10;87.52;98693.66;10547529;28;19977;-83
2021/12/28 13:54:23;;;;;;;;;;;;;;;11.06;86.74;98683.47;10550977;28;19935;-84
2021/12/28 13:59:27;;;;;;;;;;;;;;;10.94;84.93;98692.81;10550607;28;19923;-83
2021/12/28 14:04:31;;;;;;;;;;;;;;;10.84;84.55;98704.47;10553115;28;19928;-83
2021/12/28 14:09:32;;;;;;;;;;;;;;;10.79;84.75;98693.44;10562224;28;19924;-83
2021/12/28 14:14:37;;;;;;;;;;;;;;;10.76;85.45;98695.66;10569247;28;19927;-83
2021/12/28 14:19:40;;;;;;;;;;;;;;;10.70;85.78;98695.28;10562844;28;19969;-83
2021/12/28 14:24:43;;;;;;;;;;;;;;;10.66;86.44;98701.09;10563716;28;19977;-83
2021/12/28 14:29:46;;;;;;;;;;;;;;;10.60;85.95;98709.78;10568313;28;20486;-84
2021/12/28 14:34:48;;;;;;;;;;;;;;;10.58;86.71;98714.44;10564628;28;19924;-84
2021/12/28 14:39:52;;;;;;;;;;;;;;;10.57;87.27;98710.09;10568300;28;19965;-83
2021/12/28 14:44:59;;;;;;;;;;;;;;;10.56;87.39;98729.81;10565401;28;19923;-84
2021/12/28 14:50:08;;;;;;;;;;;;;;;10.48;88.25;98723.44;10567944;28;20355;-83
2021/12/28 14:55:11;;;;;;;;;;;;;;;10.44;87.98;98729.28;10566736;28;20054;-83
2021/12/28 15:00:18;;;;;;;;;;;;;;;10.38;88.45;98733.41;10571940;28;20046;-84
2021/12/28 15:05:20;;;;;;;;;;;;;;;10.35;88.69;98728.41;10568867;28;19987;-83
2021/12/28 15:10:23;;;;;;;;;;;;;;;10.24;89.04;98726.81;10584071;28;19926;-83
2021/12/28 15:15:26;;;;;;;;;;;;;;;10.21;89.47;98740.50;10578242;28;20015;-83
2021/12/28 15:20:28;;;;;;;;;;;;;;;10.21;89.55;98739.63;10583197;28;20520;-83
2021/12/28 15:25:31;;;;;;;;;;;;;;;10.20;90.16;98770.81;10578811;27;19923;-83
2021/12/28 15:30:35;;;;;;;;;;;;;;;10.17;90.32;98770.31;10571182;28;20569;-83
2021/12/28 15:35:38;;;;;;;;;;;;;;;10.09;90.51;98763.09;10574150;28;19919;-83
2021/12/28 15:40:40;;;;;;;;;;;;;;;10.11;90.82;98774.44;10575148;28;19976;-83
2021/12/28 15:45:44;;;;;;;;;;;;;;;10.06;90.78;98785.59;10572251;28;19995;-84
2021/12/28 15:50:45;;;;;;;;;;;;;;;10.07;91.61;98807.75;10572373;28;19920;-83
2021/12/28 15:55:47;;;;;;;;;;;;;;;10.06;91.68;98812.28;10577180;27;19940;-82
2021/12/28 16:00:50;;;;;;;;;;;;;;;10.07;91.99;98811.25;10575355;28;19920;-83
2021/12/28 16:05:52;;;;;;;;;;;;;;;10.06;92.82;98806.94;10582819;28;20280;-83
2021/12/28 16:10:53;;;;;;;;;;;;;;;10.04;92.99;98827.59;10540482;28;19924;-84
2021/12/28 16:15:56;;;;;;;;;;;;;;;10.04;93.36;98827.59;10536153;28;19926;-84
2021/12/28 16:20:58;;;;;;;;;;;;;;;10.03;93.31;98849.91;10530394;28;19920;-84
2021/12/28 16:25:59;;;;;;;;;;;;;;;10.05;94.08;98858.59;10532713;28;19920;-84
2021/12/28 16:31:03;;;;;;;;;;;;;;;10.07;93.68;98877.94;10538089;28;19956;-84
2021/12/28 16:36:06;;;;;;;;;;;;;;;10.08;93.82;98881.47;10528331;28;20001;-83
2021/12/28 16:41:10;;;;;;;;;;;;;;;10.03;94.40;98892.59;10527844;28;19924;-82
2021/12/28 16:46:13;;;;;;;;;;;;;;;10.01;94.78;98894.56;10524551;28;19924;-83
2021/12/28 16:51:15;;;;;;;;;;;;;;;10.02;94.92;98909.59;10522577;28;19931;-82
2021/12/28 16:56:17;;;;;;;;;;;;;;;9.98;95.37;98913.53;10522526;28;19919;-82
2021/12/28 17:01:19;;;;;;;;;;;;;;;10.02;95.57;98935.41;10521670;28;19924;-83
2021/12/28 17:06:22;;;;;;;;;;;;;;;10.05;95.73;98935.13;10518562;28;19920;-83
2021/12/28 17:11:23;;;;;;;;;;;;;;;10.06;95.95;98947.47;10525942;28;20379;-82
2021/12/28 17:16:26;;;;;;;;;;;;;;;10.04;96.14;98955.63;10530807;28;19924;-82
2021/12/28 17:21:28;;;;;;;;;;;;;;;10.07;96.36;98965.97;10533134;28;19920;-82
2021/12/28 17:26:30;;;;;;;;;;;;;;;10.10;96.52;98967.50;10529772;28;19958;-82
2021/12/28 17:31:32;;;;;;;;;;;;;;;10.12;96.56;98974.34;10518273;28;19934;-82
2021/12/28 17:36:34;;;;;;;;;;;;;;;10.14;97.09;98993.72;10517112;28;19942;-83
2021/12/28 17:41:36;;;;;;;;;;;;;;;10.13;96.97;99005.38;10512084;28;19974;-82
2021/12/28 17:46:39;;;;;;;;;;;;;;;10.16;97.44;99019.41;10521984;28;19935;-83
2021/12/28 17:51:42;;;;;;;;;;;;;;;10.17;97.75;99026.41;10523915;28;19931;-82
2021/12/28 17:56:43;;;;;;;;;;;;;;;10.18;97.84;99036.94;10515381;28;19994;-83
2021/12/28 18:01:46;;;;;;;;;;;;;;;10.19;98.26;99043.97;10515462;28;19981;-82
2021/12/28 18:06:48;;;;;;;;;;;;;;;10.22;98.23;99074.81;10522420;28;19931;-82
2021/12/28 18:11:50;;;;;;;;;;;;;;;10.23;98.80;99079.19;10526016;28;19974;-83
2021/12/28 18:16:53;;;;;;;;;;;;;;;10.22;98.54;99090.84;10531998;28;19928;-83
2021/12/28 18:21:57;;;;;;;;;;;;;;;10.26;98.84;99116.22;10537829;28;19926;-82
2021/12/28 18:26:59;;;;;;;;;;;;;;;10.27;98.96;99157.94;10529445;28;19966;-82
2021/12/28 18:32:04;;;;;;;;;;;;;;;10.27;98.63;99179.28;10531104;28;19928;-82
2021/12/28 18:37:06;;;;;;;;;;;;;;;10.28;98.50;99191.63;10524696;28;19950;-82
2021/12/28 18:42:09;;;;;;;;;;;;;;;10.29;98.39;99212.00;10530063;28;19924;-82
2021/12/28 18:47:15;;;;;;;;;;;;;;;10.31;98.44;99232.22;10530435;28;19959;-82
2021/12/28 18:52:16;;;;;;;;;;;;;;;10.33;98.11;99226.75;10532037;28;19924;-82
2021/12/28 18:57:18;;;;;;;;;;;;;;;10.34;98.09;99247.13;10533452;28;19926;-83
2021/12/28 19:02:22;;;;;;;;;;;;;;;10.37;98.20;99272.66;10535468;28;19931;-83
2021/12/28 19:07:23;;;;;;;;;;;;;;;10.35;98.03;99290.66;10525134;28;20391;-82
2021/12/28 19:12:25;;;;;;;;;;;;;;;10.36;98.30;99294.97;10525243;28;19930;-83
2021/12/28 19:17:28;;;;;;;;;;;;;;;10.36;98.58;99303.84;10528733;28;20287;-82
2021/12/28 19:22:29;;;;;;;;;;;;;;;10.38;98.22;99312.56;10526999;28;20334;-82
2021/12/28 19:27:31;;;;;;;;;;;;;;;10.36;98.83;99329.69;10518913;28;19935;-82
2021/12/28 19:32:33;;;;;;;;;;;;;;;10.39;98.21;99353.41;10520580;28;19927;-82
2021/12/28 19:37:35;;;;;;;;;;;;;;;10.39;98.28;99369.44;10518065;28;19927;-82
2021/12/28 19:42:37;;;;;;;;;;;;;;;10.40;98.38;99395.97;10517769;28;19921;-82
2021/12/28 19:47:40;;;;;;;;;;;;;;;10.38;98.04;99400.63;10516861;28;19993;-82
2021/12/28 19:52:41;;;;;;;;;;;;;;;10.37;98.43;99425.63;10519444;28;19924;-82
2021/12/28 19:57:43;;;;;;;;;;;;;;;10.34;98.49;99423.25;10525245;28;19920;-82
2021/12/28 20:02:47;;;;;;;;;;;;;;;10.34;98.17;99439.28;10518897;28;19924;-82
2021/12/28 20:07:48;;;;;;;;;;;;;;;10.34;98.65;99436.59;10520689;28;20366;-82
2021/12/28 20:12:55;;;;;;;;;;;;;;;10.35;98.40;99459.63;10518437;28;19952;-82
2021/12/28 20:17:59;;;;;;;;;;;;;;;10.35;98.31;99472.13;10523918;28;19924;-82
2021/12/28 20:23:01;;;;;;;;;;;;;;;10.36;98.24;99476.47;10522418;28;19999;-83
2021/12/28 20:28:04;;;;;;;;;;;;;;;10.37;98.64;99489.69;10531679;28;19935;-83
2021/12/28 20:33:07;;;;;;;;;;;;;;;10.39;98.84;99500.22;10526775;28;19927;-83
2021/12/28 20:38:08;;;;;;;;;;;;;;;10.40;98.52;99515.25;10530149;28;19928;-84
2021/12/28 20:43:10;;;;;;;;;;;;;;;10.37;98.36;99529.72;10521704;28;19942;-83
2021/12/28 20:48:14;;;;;;;;;;;;;;;10.38;98.56;99533.22;10527011;28;19924;-82
2021/12/28 20:53:15;;;;;;;;;;;;;;;10.41;99.17;99547.13;10518837;28;19947;-82
2021/12/28 20:58:17;;;;;;;;;;;;;;;10.41;99.10;99570.31;10527766;28;20002;-83
2021/12/28 21:03:20;;;;;;;;;;;;;;;10.40;98.13;99574.00;10526862;28;19931;-82
2021/12/28 21:08:21;;;;;;;;;;;;;;;10.39;98.71;99582.97;10524429;28;19935;-82
2021/12/28 21:13:23;;;;;;;;;;;;;;;10.35;98.27;99605.59;10529367;28;19920;-84
2021/12/28 21:18:26;;;;;;;;;;;;;;;10.36;98.59;99613.47;10527180;28;19905;-84
2021/12/28 21:23:31;;;;;;;;;;;;;;;10.35;98.61;99627.78;10525431;28;20354;-84
2021/12/28 21:28:33;;;;;;;;;;;;;;;10.35;98.33;99637.63;10536820;28;19924;-83
2021/12/28 21:33:36;;;;;;;;;;;;;;;10.32;98.44;99662.72;10526274;28;19974;-84
2021/12/28 21:38:37;;;;;;;;;;;;;;;10.31;98.41;99669.91;10524450;28;20028;-82
2021/12/28 21:43:39;;;;;;;;;;;;;;;10.33;98.21;99685.78;10525354;28;19920;-83
2021/12/28 21:48:42;;;;;;;;;;;;;;;10.32;98.15;99703.63;10529151;28;19926;-83
2021/12/28 21:53:43;;;;;;;;;;;;;;;10.32;98.84;99713.44;10528240;28;19932;-84
2021/12/28 21:58:45;;;;;;;;;;;;;;;10.33;98.80;99728.50;10529158;28;19919;-83
2021/12/28 22:03:50;;;;;;;;;;;;;;;10.34;98.62;99740.88;10522919;28;19927;-84
2021/12/28 22:08:53;;;;;;;;;;;;;;;10.35;99.06;99749.72;10525940;28;19924;-84
2021/12/28 22:13:54;;;;;;;;;;;;;;;10.36;98.46;99751.38;10527826;28;20341;-85
2021/12/28 22:18:57;;;;;;;;;;;;;;;10.36;98.45;99759.38;10527407;28;19931;-83
2021/12/28 22:23:59;;;;;;;;;;;;;;;10.35;98.77;99760.38;10524483;28;19927;-83
2021/12/28 22:29:01;;;;;;;;;;;;;;;10.37;98.13;99772.63;10534341;28;19942;-83
2021/12/28 22:34:04;;;;;;;;;;;;;;;10.38;98.24;99792.13;10529601;28;19920;-82
2021/12/28 22:39:06;;;;;;;;;;;;;;;10.40;99.04;99792.88;10533481;28;19920;-82
2021/12/28 22:44:07;;;;;;;;;;;;;;;10.43;98.86;99800.59;10534577;28;20034;-82
2021/12/28 22:49:10;;;;;;;;;;;;;;;10.41;98.31;99786.53;10529958;28;20466;-82
2021/12/28 22:54:12;;;;;;;;;;;;;;;9.92;98.67;99712.44;10533350;28;19931;-83
2021/12/28 22:59:13;;;;;;;;;;;;;;;10.41;98.73;99798.03;10526504;28;19920;-81
2021/12/28 23:04:16;;;;;;;;;;;;;;;10.41;98.84;99813.22;10532700;28;19927;-82
2021/12/28 23:09:18;;;;;;;;;;;;;;;10.40;98.84;99815.06;10535129;28;19920;-82
2021/12/28 23:14:22;;;;;;;;;;;;;;;10.40;98.08;99846.25;10535944;28;19926;-84
2021/12/28 23:19:25;;;;;;;;;;;;;;;10.39;98.46;99845.38;10532478;28;19928;-83
2021/12/28 23:24:27;;;;;;;;;;;;;;;10.38;98.14;99841.03;10533163;28;19931;-83
2021/12/28 23:29:28;;;;;;;;;;;;;;;10.39;98.60;99849.88;10531833;28;19924;-83
2021/12/28 23:34:32;;;;;;;;;;;;;;;10.39;98.67;99866.75;10533272;28;20343;-82
2021/12/28 23:39:34;;;;;;;;;;;;;;;10.41;98.58;99882.63;10536711;28;19964;-83
2021/12/28 23:44:35;;;;;;;;;;;;;;;10.42;98.62;99887.00;10535883;28;19993;-83
2021/12/28 23:49:38;;;;;;;;;;;;;;;10.44;98.57;99906.41;10536223;28;19920;-83
2021/12/28 23:54:40;;;;;;;;;;;;;;;10.41;98.54;99926.19;10534799;28;20447;-82
2021/12/28 23:59:41;;;;;;;;;;;;;;;10.43;98.67;99961.59;10521790;28;19931;-82
